Adamsville, Alabama
Current Conditions -  °F | °C
As of 2:53 PM on Saturday 20 Dec 2014 (Local Time) from KBHM Reporting Station
Overcast Overcast  
Wind Chill: 50°   Ceiling: 4000
Heat Index: 50°   Visibility: 10mi
Dew Point: 37°   Wind: 5mph
Humidity: 61%   Direction: 10°N
Pressure: 30.18"   Gusts: NA
Location:  33.6°N, 86.96°W
Report Text: KBHM 202053Z 01004KT 10SM OVC040 10/03 A3018 RMK AO2 SLP222 T01000028 56010
Loading
Personal Weather Stations






























Interactive Weather Map New forecast layout! Learn more

10-Day Weather Forecast

Advertisements
Track Severe Weather on mobile